createdAt,value
2023-02-11T00:00:24.517Z,-5.4
2023-02-11T00:06:02.480Z,-5.3
2023-02-11T00:11:41.261Z,-5.3
2023-02-11T00:17:19.647Z,-5.3
2023-02-11T00:22:59.641Z,-5.3
2023-02-11T00:28:36.693Z,-5.4
2023-02-11T00:34:14.873Z,-5.4
2023-02-11T00:39:37.135Z,-5.3
2023-02-11T00:45:00.143Z,-5.4
2023-02-11T00:50:38.391Z,-5.6
2023-02-11T00:56:00.486Z,-5.8
2023-02-11T01:01:38.456Z,-5.7
2023-02-11T01:07:16.888Z,-5.6
2023-02-11T01:12:53.630Z,-5.8
2023-02-11T01:18:32.029Z,-5.9
2023-02-11T01:24:09.800Z,-5.9
2023-02-11T01:35:09.879Z,-6.2
2023-02-11T01:40:47.008Z,-6.3
2023-02-11T01:46:24.080Z,-6.4
2023-02-11T01:52:02.069Z,-6.5
2023-02-11T01:57:39.857Z,-6.6
2023-02-11T02:03:16.584Z,-6.7
2023-02-11T02:08:53.883Z,-6.8
2023-02-11T02:14:31.470Z,-6.8
2023-02-11T02:20:08.309Z,-6.9
2023-02-11T02:24:59.047Z,-6.9
2023-02-11T02:30:37.181Z,-6.9
2023-02-11T02:36:29.278Z,-6.8
2023-02-11T02:42:07.024Z,-6.9
2023-02-11T02:47:45.121Z,-6.9
2023-02-11T02:53:21.984Z,-6.8
2023-02-11T02:59:03.585Z,-6.8
2023-02-11T03:04:41.467Z,-6.8
2023-02-11T03:10:18.780Z,-6.8
2023-02-11T03:15:56.226Z,-6.8
2023-02-11T03:21:34.329Z,-6.9
2023-02-11T03:27:11.606Z,-6.9
2023-02-11T03:32:49.767Z,-7
2023-02-11T03:38:12.254Z,-7.4
2023-02-11T03:43:34.967Z,-7.5
2023-02-11T03:48:57.681Z,-7.3
2023-02-11T03:54:03.466Z,-7.3
2023-02-11T03:59:08.922Z,-7.3
2023-02-11T04:04:31.465Z,-7.4
2023-02-11T04:09:38.040Z,-7.7
2023-02-11T04:15:15.161Z,-7.9
2023-02-11T04:20:54.829Z,-7.9
2023-02-11T04:26:31.150Z,-7.9
2023-02-11T04:32:08.571Z,-7.8
2023-02-11T04:37:30.485Z,-7.7
2023-02-11T04:43:07.584Z,-7.9
2023-02-11T04:48:45.354Z,-7.9
2023-02-11T04:54:23.735Z,-8.1
2023-02-11T05:00:00.812Z,-8.1
2023-02-11T05:05:38.387Z,-8.3
2023-02-11T05:11:16.052Z,-8.6
2023-02-11T05:16:54.422Z,-8.6
2023-02-11T05:22:51.346Z,-8.7
2023-02-11T05:28:29.141Z,-8.6
2023-02-11T05:34:07.117Z,-8.6
2023-02-11T05:39:43.710Z,-8.7
2023-02-11T05:45:07.335Z,-8.8
2023-02-11T05:50:45.270Z,-8.8
2023-02-11T05:56:23.390Z,-8.6
2023-02-11T06:02:00.319Z,-8.3
2023-02-11T06:07:38.023Z,-8.3
2023-02-11T06:13:13.948Z,-7.6
2023-02-11T06:24:03.566Z,-7.1
2023-02-11T06:30:08.847Z,-6.9
2023-02-11T06:36:07.398Z,-6.5
2023-02-11T06:41:44.111Z,-6.1
2023-02-11T06:47:20.942Z,-5.9
2023-02-11T06:52:59.540Z,-6.1
2023-02-11T06:58:36.400Z,-5.6
2023-02-11T07:04:13.108Z,-4.6
2023-02-11T07:09:52.070Z,-4.6
2023-02-11T07:15:32.774Z,-4.1
2023-02-11T07:21:09.683Z,-4
2023-02-11T07:26:46.529Z,-3.9
2023-02-11T07:32:26.214Z,-3.4
2023-02-11T07:38:03.102Z,-3
2023-02-11T07:43:40.176Z,-2.4
2023-02-11T07:49:18.788Z,-1.7
2023-02-11T07:54:58.194Z,-2
2023-02-11T08:00:37.546Z,-1.6
2023-02-11T08:06:15.850Z,-1.8
2023-02-11T08:11:54.112Z,-1.5
2023-02-11T08:17:31.352Z,-0.3
2023-02-11T08:23:09.621Z,-1.2
2023-02-11T08:28:49.796Z,-0.6
2023-02-11T08:34:27.771Z,0.3
2023-02-11T08:40:24.891Z,0.9
2023-02-11T08:46:02.745Z,0.3
2023-02-11T08:51:25.113Z,1.6
2023-02-11T08:56:47.649Z,1.4
2023-02-11T09:02:27.321Z,1.4
2023-02-11T09:08:04.893Z,0.6
2023-02-11T09:13:11.225Z,0.9
2023-02-11T09:18:48.599Z,1.6
2023-02-11T09:24:25.780Z,1.6
2023-02-11T09:30:03.342Z,1.8
2023-02-11T09:35:42.178Z,2.2
2023-02-11T09:41:20.110Z,2.6
2023-02-11T09:46:45.967Z,3.1
2023-02-11T09:52:23.328Z,2.6
2023-02-11T09:58:18.212Z,2.6
2023-02-11T10:03:55.433Z,2.7
2023-02-11T10:09:18.439Z,2.7
2023-02-11T10:14:56.890Z,3.9
2023-02-11T10:20:35.130Z,3.9
2023-02-11T10:26:13.000Z,3.1
2023-02-11T10:36:30.660Z,3.9
2023-02-11T10:42:08.296Z,3.8
2023-02-11T10:47:46.443Z,4.6
2023-02-11T10:53:07.994Z,4.8
2023-02-11T10:58:44.550Z,4.4
2023-02-11T11:04:33.161Z,6
2023-02-11T11:10:13.207Z,5.8
2023-02-11T11:15:50.172Z,4.6
2023-02-11T11:21:45.941Z,4.4
2023-02-11T11:27:23.508Z,4.6
2023-02-11T11:33:02.454Z,5.1
2023-02-11T11:38:39.518Z,4.3
2023-02-11T11:44:01.387Z,5.8
2023-02-11T11:49:38.675Z,4.9
2023-02-11T11:55:01.322Z,6.1
2023-02-11T12:00:23.503Z,6.1
2023-02-11T12:06:01.575Z,5.8
2023-02-11T12:11:25.778Z,6
2023-02-11T12:16:32.784Z,5.6
2023-02-11T12:21:39.314Z,6.2
2023-02-11T12:27:16.894Z,6.1
2023-02-11T12:32:58.169Z,6
2023-02-11T12:38:36.595Z,6.4
2023-02-11T12:44:14.215Z,6.4
2023-02-11T12:49:51.397Z,5.6
2023-02-11T12:55:13.178Z,5.8
2023-02-11T13:01:01.846Z,5.4
2023-02-11T13:06:42.376Z,6.3
2023-02-11T13:12:21.365Z,5.5
2023-02-11T13:17:58.369Z,5.8
2023-02-11T13:23:06.877Z,6.4
2023-02-11T13:28:28.497Z,5.8
2023-02-11T13:34:06.582Z,5.9
2023-02-11T13:39:14.227Z,5.8
2023-02-11T13:44:51.317Z,5.4
2023-02-11T13:50:13.488Z,5.4
2023-02-11T13:55:34.227Z,5.4
2023-02-11T14:01:11.558Z,5.1
2023-02-11T14:06:50.855Z,5.5
2023-02-11T14:12:28.081Z,5.8
2023-02-11T14:18:22.041Z,5.3
2023-02-11T14:23:59.811Z,5.1
2023-02-11T14:29:36.272Z,5.1
2023-02-11T14:35:14.916Z,5.1
2023-02-11T14:40:52.950Z,4.9
2023-02-11T14:46:31.229Z,4.9
2023-02-11T14:51:54.935Z,4.6
2023-02-11T14:57:33.084Z,4.6
2023-02-11T15:02:55.641Z,4.3
2023-02-11T15:08:33.359Z,4.3
2023-02-11T15:14:12.127Z,3.9
2023-02-11T15:19:34.575Z,3.7
2023-02-11T15:24:56.926Z,3.5
2023-02-11T15:30:22.928Z,3.4
2023-02-11T15:36:01.169Z,3.1
2023-02-11T15:41:38.022Z,2.8
2023-02-11T15:47:30.986Z,2.4
2023-02-11T15:53:09.159Z,2.1
2023-02-11T15:58:45.830Z,1.9
2023-02-11T16:04:26.317Z,1.8
2023-02-11T16:10:03.015Z,1.7
2023-02-11T16:15:40.782Z,1.6
2023-02-11T16:21:42.575Z,1.5
2023-02-11T16:27:05.097Z,1.3
2023-02-11T16:32:46.614Z,1
2023-02-11T16:38:27.242Z,0.9
2023-02-11T16:44:03.739Z,0.9
2023-02-11T16:49:26.048Z,0.9
2023-02-11T16:55:06.695Z,1
2023-02-11T17:00:44.848Z,0.8
2023-02-11T17:06:33.536Z,0.5
2023-02-11T17:12:11.678Z,0.3
2023-02-11T17:17:34.565Z,0.2
2023-02-11T17:22:58.308Z,0.1
2023-02-11T17:28:36.122Z,-0.2
2023-02-11T17:33:59.065Z,0
2023-02-11T17:39:39.549Z,0.1
2023-02-11T17:45:20.410Z,0.4
2023-02-11T17:50:45.710Z,0.2
2023-02-11T17:56:08.936Z,0.2
2023-02-11T18:01:32.398Z,0.3
2023-02-11T18:06:57.609Z,0.3
2023-02-11T18:12:22.589Z,0.6
2023-02-11T18:18:00.911Z,0.4
2023-02-11T18:23:38.792Z,0.4
2023-02-11T18:29:18.962Z,0
2023-02-11T18:34:58.022Z,-0.3
2023-02-11T18:40:04.883Z,-0.1
2023-02-11T18:45:42.047Z,0.1
2023-02-11T18:51:20.721Z,0.1
2023-02-11T18:56:58.544Z,0.1
2023-02-11T19:02:37.227Z,-0.3
2023-02-11T19:08:15.861Z,-0.4
2023-02-11T19:13:37.102Z,-0.7
2023-02-11T19:24:28.801Z,-0.6
2023-02-11T19:29:49.657Z,-0.6
2023-02-11T19:35:27.496Z,-1
2023-02-11T19:41:05.977Z,-1.2
2023-02-11T19:46:43.967Z,-0.8
2023-02-11T19:52:21.658Z,0.1
2023-02-11T19:57:59.492Z,0.3
2023-02-11T20:03:38.496Z,0
2023-02-11T20:09:18.107Z,0.2
2023-02-11T20:14:27.806Z,0.1
2023-02-11T20:20:13.995Z,-0.2
2023-02-11T20:25:51.974Z,-0.1
2023-02-11T20:31:29.997Z,-0.1
2023-02-11T20:37:06.628Z,-0.1
2023-02-11T20:42:33.327Z,0
2023-02-11T20:48:11.710Z,-0.3
2023-02-11T20:53:48.315Z,-0.6
2023-02-11T20:59:24.780Z,-0.9
2023-02-11T21:10:23.809Z,-1.1
2023-02-11T21:15:46.225Z,-1.1
2023-02-11T21:21:24.185Z,-1.3
2023-02-11T21:27:01.317Z,-1.3
2023-02-11T21:32:46.902Z,-1.6
2023-02-11T21:38:27.315Z,-1.6
2023-02-11T21:43:32.624Z,-1.8
2023-02-11T21:49:10.471Z,-2
2023-02-11T21:54:35.641Z,-1.9
2023-02-11T22:00:11.859Z,-1.6
2023-02-11T22:05:49.804Z,-1.4
2023-02-11T22:11:28.456Z,-1.1
2023-02-11T22:17:06.994Z,-1.1
2023-02-11T22:22:44.209Z,-0.8
2023-02-11T22:28:21.500Z,-0.9
2023-02-11T22:33:59.335Z,-0.9
2023-02-11T22:39:24.602Z,-0.8
2023-02-11T22:45:02.247Z,-0.6
2023-02-11T22:50:40.878Z,-0.4
2023-02-11T22:56:18.090Z,-0.6
2023-02-11T23:01:55.572Z,-0.7
2023-02-11T23:07:33.925Z,-0.9
2023-02-11T23:13:11.521Z,-0.8
2023-02-11T23:18:34.341Z,-0.4
2023-02-11T23:24:12.030Z,-0.6
2023-02-11T23:29:50.003Z,-0.7
2023-02-11T23:35:28.729Z,-0.6
2023-02-11T23:41:06.216Z,-0.4
2023-02-11T23:46:45.056Z,-0.2
2023-02-11T23:51:52.204Z,-0.6
2023-02-11T23:57:28.756Z,0.1
